KSFOKSQL

Guest
Details From KSFO - San Francisco Intl
To KSQL - San Carlos
Flight Number -
Tags generated
Created
Modified
Stats Distance 9 nm / 16 km
Max Altitude 0 ft / 0 m
Waypoints 2
Social Downloads 0
Likes 0
Share VATSIM

Download

Looking for another format? Having issues loading an existing format? Contact us
Advertisement - Login to hide

Notes

Basic altitude profile: - Ascent Rate: 2500ft/min - Ascent Speed: 250kts - Cruise Altitude: 35000ft - Cruise Speed: 420kts - Descent Rate: 1500ft/min - Descent Speed: 250kts Options: - Use NATs: no - Use PACOTS: no - Use low airways: no - Use high airways: yes

Route

KSFO KSQL

ID Type Via Altitude Latitude Longitude Leg Dist Tot Dist Heading (true) Name
O KSFO APT - 0 ft / 0 m 37.61867˚ -122.37501˚ - 0 nm - San Francisco Intl
O KSQL APT - 0 ft / 0 m 37.51173˚ -122.24939˚ 8 nm 8 nm 137° / 137° San Carlos

Altitude Profile

Advertisement - Login to hide

KSFO

Details ICAO KSFO (SFO)
Name San Francisco Intl
Region United States
Timezone America/Los_Angeles (UTC-7.0)
Stats Elevation 13 ft / 4 m (AMSL)
Location 37.618674° -122.375008°
Runways 4
Magnetic Variation 13.421° E

METAR

KSFO 252156Z 24012KT 10SM FEW017 BKN024 BKN046 18/10 A3012 RMK AO2 SLP200 T01780100

Decode

TAF

KSFO 252053Z 2521/2624 23010KT P6SM VCSH SCT020 BKN030 BKN050 FM252300 27012KT P6SM VCSH BKN035 BKN050 TEMPO 2523/2603 SCT035 FM260500 26006KT P6SM BKN030 BKN050 FM261200 28006KT P6SM BKN025 BKN050 FM261700 26010KT P6SM SCT030 SCT060 FM262100 27014KT P6SM SCT030 SCT060

Decode

Departure Runways

ID Width Length Bearing (true) Bearing (mag) Surface Threshold Offset Overrun Length
01L 200 ft / 61 m 7,509 ft / 2,289 m 27.70° 14.28° Asphalt 492 ft / 150 m 0 ft / 0 m
01R 200 ft / 61 m 8,907 ft / 2,715 m 27.71° 14.29° Asphalt 492 ft / 150 m 0 ft / 0 m
10L 200 ft / 61 m 11,856 ft / 3,614 m 117.89° 104.47° Asphalt 0 ft / 0 m 860 ft / 262 m
10R 200 ft / 61 m 10,589 ft / 3,228 m 117.90° 104.48° Asphalt 0 ft / 0 m 0 ft / 0 m
19L 200 ft / 61 m 8,907 ft / 2,715 m 207.72° 194.30° Asphalt 0 ft / 0 m 0 ft / 0 m
19R 200 ft / 61 m 7,509 ft / 2,289 m 207.70° 194.28° Asphalt 0 ft / 0 m 0 ft / 0 m
28L 200 ft / 61 m 10,589 ft / 3,228 m 297.92° 284.50° Asphalt 0 ft / 0 m 341 ft / 104 m
28R 200 ft / 61 m 11,856 ft / 3,614 m 297.91° 284.49° Asphalt 0 ft / 0 m 341 ft / 104 m

KSQL

Details ICAO KSQL (SQL)
Name San Carlos
Region United States
Timezone America/Los_Angeles (UTC-7.0)
Stats Elevation 5 ft / 2 m (AMSL)
Location 37.511735° -122.249386°
Runways 1
Magnetic Variation 13.379° E

METAR

KSQL 252147Z 25007KT 10SM FEW024 BKN055 17/10 A3012

Decode

TAF

Not found

Destination Runways

ID Width Length Bearing (true) Bearing (mag) Surface Threshold Offset Overrun Length
12 75 ft / 23 m 2,619 ft / 798 m 138.39° 125.01° Asphalt 0 ft / 0 m 299 ft / 91 m
30 75 ft / 23 m 2,619 ft / 798 m 318.40° 305.02° Asphalt 0 ft / 0 m 135 ft / 41 m

Popular Alternatives